Hutchinson, Pennsylvania
Current Conditions -  °F | °C
As of 7:53 PM on Monday 20 Oct 2014 (Local Time) from KAGC Reporting Station
Overcast Overcast  
Wind Chill: 53°   Ceiling: 11000
Heat Index: 53°   Visibility: 10mi
Dew Point: 39°   Wind: 7mph
Humidity: 59%   Direction: 180°S
Pressure: 29.89"   Gusts: NA
Location:  40.22°N, 79.73°W
Report Text: KAGC 202353Z 18006KT 10SM OVC110 12/04 A2989 RMK AO2 RAB23E34 SLP128 P0000 60000 T01170039 10139 20117 50003
Loading
Personal Weather Stations






























Interactive Weather Map
Tropical Storm Tracking
New forecast layout! Learn more

10-Day Weather Forecast

Advertisements
Track Severe Weather on mobile